createdAt,value
2023-08-29T00:02:19.082Z,2.78
2023-08-29T00:04:46.091Z,1.95
2023-08-29T00:07:13.045Z,1.92
2023-08-29T00:09:40.061Z,1.80
2023-08-29T00:12:07.281Z,2.20
2023-08-29T00:14:35.286Z,2.33
2023-08-29T00:17:02.305Z,2.63
2023-08-29T00:19:29.228Z,1.98
2023-08-29T00:21:56.153Z,2.28
2023-08-29T00:24:23.071Z,2.55
2023-08-29T00:26:50.037Z,2.80
2023-08-29T00:29:17.365Z,3.00
2023-08-29T00:31:44.328Z,1.92
2023-08-29T00:34:11.257Z,2.25
2023-08-29T00:36:38.234Z,2.30
2023-08-29T00:39:05.488Z,2.40
2023-08-29T00:41:32.427Z,2.58
2023-08-29T00:43:59.360Z,2.30
2023-08-29T00:46:26.951Z,1.48
2023-08-29T00:48:53.966Z,2.35
2023-08-29T00:51:21.100Z,1.90
2023-08-29T00:53:48.499Z,2.17
2023-08-29T00:56:19.160Z,2.28
2023-08-29T00:58:46.081Z,2.33
2023-08-29T01:01:13.870Z,2.03
2023-08-29T01:03:40.969Z,1.80
2023-08-29T01:06:07.894Z,1.83
2023-08-29T01:08:34.860Z,1.67
2023-08-29T01:11:23.798Z,2.22
2023-08-29T01:13:56.014Z,1.60
2023-08-29T01:16:27.527Z,1.88
2023-08-29T01:18:54.506Z,1.77
2023-08-29T01:21:33.721Z,1.90
2023-08-29T01:24:07.368Z,2.15
2023-08-29T01:29:01.956Z,1.63
2023-08-29T01:31:31.227Z,2.33
2023-08-29T01:34:01.477Z,2.10
2023-08-29T01:36:29.195Z,1.42
2023-08-29T01:38:56.155Z,1.98
2023-08-29T01:41:23.096Z,2.22
2023-08-29T01:43:50.069Z,1.73
2023-08-29T01:46:17.070Z,1.77
2023-08-29T01:48:44.066Z,2.08
2023-08-29T01:51:11.044Z,1.75
2023-08-29T01:53:40.423Z,1.60
2023-08-29T01:56:08.476Z,2.05
2023-08-29T01:58:36.522Z,2.30
2023-08-29T02:01:17.582Z,2.10
2023-08-29T02:03:50.392Z,2.30
2023-08-29T02:06:17.376Z,2.28
2023-08-29T02:08:45.906Z,2.03
2023-08-29T02:11:12.926Z,1.58
2023-08-29T02:13:39.936Z,1.88
2023-08-29T02:16:06.861Z,1.65
2023-08-29T02:18:33.824Z,2.00
2023-08-29T02:21:00.779Z,1.48
2023-08-29T02:23:27.717Z,1.75
2023-08-29T02:26:04.393Z,1.58
2023-08-29T02:28:36.579Z,1.70
2023-08-29T02:31:07.517Z,1.25
2023-08-29T02:33:35.239Z,1.65
2023-08-29T02:36:02.193Z,1.38
2023-08-29T02:38:29.161Z,2.13
2023-08-29T02:40:56.155Z,1.40
2023-08-29T02:43:23.162Z,1.58
2023-08-29T02:45:53.166Z,1.48
2023-08-29T02:48:20.144Z,1.35
2023-08-29T02:50:50.285Z,1.02
2023-08-29T02:53:20.992Z,1.15
2023-08-29T02:55:51.993Z,1.40
2023-08-29T02:58:19.994Z,1.10
2023-08-29T03:00:47.075Z,1.10
2023-08-29T03:05:43.504Z,1.27
2023-08-29T03:08:10.477Z,1.10
2023-08-29T03:10:38.178Z,1.42
2023-08-29T03:13:05.340Z,1.25
2023-08-29T03:15:35.295Z,1.30
2023-08-29T03:18:04.442Z,0.98
2023-08-29T03:20:31.839Z,1.20
2023-08-29T03:22:59.036Z,1.10
2023-08-29T03:25:26.354Z,1.30
2023-08-29T03:27:53.542Z,1.00
2023-08-29T03:30:20.549Z,0.82
2023-08-29T03:32:50.924Z,1.15
2023-08-29T03:35:18.233Z,1.00
2023-08-29T03:37:45.312Z,1.35
2023-08-29T03:40:13.226Z,0.98
2023-08-29T03:42:40.760Z,1.33
2023-08-29T03:45:09.271Z,1.10
2023-08-29T03:47:38.799Z,1.50
2023-08-29T03:50:06.783Z,1.10
2023-08-29T03:52:33.750Z,1.42
2023-08-29T03:55:00.832Z,1.70
2023-08-29T03:57:27.997Z,1.23
2023-08-29T03:59:55.069Z,1.02
2023-08-29T04:02:22.540Z,1.13
2023-08-29T04:04:52.010Z,1.17
2023-08-29T04:07:19.447Z,1.10
2023-08-29T04:09:46.414Z,0.93
2023-08-29T04:12:13.466Z,1.05
2023-08-29T04:14:40.467Z,1.48
2023-08-29T04:17:07.462Z,1.45
2023-08-29T04:19:34.853Z,1.05
2023-08-29T04:22:02.166Z,1.13
2023-08-29T04:24:30.791Z,1.73
2023-08-29T04:26:57.866Z,1.42
2023-08-29T04:29:24.825Z,1.13
2023-08-29T04:31:51.967Z,1.33
2023-08-29T04:34:19.054Z,1.08
2023-08-29T04:36:46.620Z,1.33
2023-08-29T04:39:13.724Z,1.13
2023-08-29T04:41:40.642Z,1.38
2023-08-29T04:44:07.649Z,0.90
2023-08-29T04:46:34.579Z,1.13
2023-08-29T04:49:01.560Z,1.40
2023-08-29T04:51:28.612Z,1.10
2023-08-29T04:53:55.528Z,1.30
2023-08-29T04:56:22.509Z,2.35
2023-08-29T04:58:49.472Z,1.38
2023-08-29T05:01:16.525Z,1.38
2023-08-29T05:03:43.569Z,1.52
2023-08-29T05:06:10.524Z,1.60
2023-08-29T05:08:37.928Z,1.10
2023-08-29T05:11:05.289Z,1.25
2023-08-29T05:13:32.272Z,1.27
2023-08-29T05:15:59.366Z,1.02
2023-08-29T05:18:26.406Z,1.20
2023-08-29T05:20:55.632Z,1.48
2023-08-29T05:23:23.440Z,1.10
2023-08-29T05:25:50.832Z,1.27
2023-08-29T05:28:17.728Z,1.23
2023-08-29T05:30:44.916Z,1.45
2023-08-29T05:33:13.106Z,0.95
2023-08-29T05:35:40.041Z,0.95
2023-08-29T05:38:07.438Z,0.90
2023-08-29T05:40:35.163Z,0.98
2023-08-29T05:43:02.375Z,1.00
2023-08-29T05:45:29.464Z,1.05
2023-08-29T05:47:56.446Z,1.30
2023-08-29T05:50:23.468Z,1.33
2023-08-29T05:52:50.478Z,1.30
2023-08-29T05:55:17.701Z,1.00
2023-08-29T05:57:44.711Z,1.27
2023-08-29T06:00:15.114Z,1.20
2023-08-29T06:02:42.112Z,1.02
2023-08-29T06:05:09.384Z,1.30
2023-08-29T06:07:36.364Z,1.40
2023-08-29T06:10:03.826Z,1.00
2023-08-29T06:12:30.761Z,1.17
2023-08-29T06:14:57.718Z,1.13
2023-08-29T06:17:24.600Z,0.80
2023-08-29T06:19:51.613Z,1.27
2023-08-29T06:22:18.585Z,0.80
2023-08-29T06:24:45.603Z,0.82
2023-08-29T06:27:12.524Z,1.15
2023-08-29T06:29:39.930Z,0.70
2023-08-29T06:32:07.098Z,0.93
2023-08-29T06:34:34.077Z,1.25
2023-08-29T06:37:01.128Z,1.00
2023-08-29T06:39:29.513Z,1.30
2023-08-29T06:41:56.838Z,0.88
2023-08-29T06:44:23.793Z,1.13
2023-08-29T06:46:50.782Z,0.90
2023-08-29T06:49:17.775Z,0.85
2023-08-29T06:51:45.978Z,0.80
2023-08-29T06:54:12.830Z,1.10
2023-08-29T06:56:39.800Z,1.15
2023-08-29T06:59:06.727Z,1.88
2023-08-29T07:01:34.170Z,1.13
2023-08-29T07:04:01.823Z,1.00
2023-08-29T07:06:28.745Z,0.80
2023-08-29T07:08:58.489Z,1.35
2023-08-29T07:11:25.390Z,0.77
2023-08-29T07:13:52.314Z,0.98
2023-08-29T07:16:19.385Z,1.05
2023-08-29T07:18:48.258Z,1.08
2023-08-29T07:21:15.192Z,0.90
2023-08-29T07:23:42.776Z,1.38
2023-08-29T07:26:10.110Z,0.85
2023-08-29T07:28:37.418Z,0.90
2023-08-29T07:31:04.363Z,1.50
2023-08-29T07:33:31.731Z,0.73
2023-08-29T07:39:16.883Z,0.73
2023-08-29T07:46:15.091Z,1.40
2023-08-29T07:53:07.182Z,0.90
2023-08-29T07:55:43.687Z,0.75
2023-08-29T08:05:17.296Z,0.80
2023-08-29T08:08:21.223Z,0.60
2023-08-29T08:10:54.912Z,0.70
2023-08-29T08:20:09.805Z,1.00
2023-08-29T08:36:44.596Z,0.73
2023-08-29T08:58:34.705Z,0.80
2023-08-29T09:09:32.651Z,0.80
2023-08-29T09:41:17.800Z,0.45
2023-08-29T09:43:50.748Z,0.80
2023-08-29T09:46:32.536Z,0.60
2023-08-29T09:49:01.954Z,0.60
2023-08-29T09:51:35.616Z,0.60
2023-08-29T09:56:33.078Z,0.70
2023-08-29T09:59:00.342Z,0.60
2023-08-29T10:01:30.595Z,0.98
2023-08-29T10:03:58.802Z,0.45
2023-08-29T10:06:26.029Z,0.50
2023-08-29T10:09:00.855Z,0.68
2023-08-29T10:11:30.458Z,0.50
2023-08-29T10:14:05.664Z,0.50
2023-08-29T10:16:33.014Z,0.40
2023-08-29T10:19:06.071Z,0.40
2023-08-29T10:21:33.196Z,1.00
2023-08-29T10:24:00.413Z,0.60
2023-08-29T10:26:27.664Z,0.60
2023-08-29T10:28:54.764Z,0.73
2023-08-29T10:31:22.147Z,0.40
2023-08-29T10:33:52.184Z,0.88
2023-08-29T10:36:19.569Z,0.70
2023-08-29T10:38:49.418Z,0.55
2023-08-29T10:41:19.211Z,0.70
2023-08-29T10:43:46.674Z,0.60
2023-08-29T10:46:13.834Z,0.50
2023-08-29T10:48:48.311Z,0.85
2023-08-29T10:51:17.413Z,0.80
2023-08-29T10:53:50.752Z,1.08
2023-08-29T10:56:43.981Z,1.20
2023-08-29T10:59:36.456Z,0.63
2023-08-29T11:02:44.630Z,1.00
2023-08-29T11:08:22.579Z,0.90
2023-08-29T11:11:17.128Z,0.60
2023-08-29T11:14:13.814Z,0.88
2023-08-29T11:17:04.524Z,1.00
2023-08-29T11:19:31.670Z,0.63
2023-08-29T11:22:01.017Z,0.80
2023-08-29T11:24:47.900Z,0.63
2023-08-29T11:30:28.340Z,0.85
2023-08-29T11:33:04.937Z,1.00
2023-08-29T11:35:33.320Z,0.60
2023-08-29T11:38:00.478Z,0.95
2023-08-29T11:40:39.023Z,0.90
2023-08-29T11:43:43.417Z,0.95
2023-08-29T11:46:04.829Z,0.90
2023-08-29T11:48:33.058Z,0.80
2023-08-29T11:51:08.802Z,0.88
2023-08-29T11:53:37.554Z,0.90
2023-08-29T11:56:06.055Z,0.88
2023-08-29T11:58:34.524Z,1.02
2023-08-29T12:01:06.267Z,0.80
2023-08-29T12:03:36.118Z,0.80
2023-08-29T12:06:05.938Z,0.93
2023-08-29T12:08:42.856Z,0.80
2023-08-29T12:11:10.981Z,0.68
2023-08-29T12:13:38.498Z,0.80
2023-08-29T12:16:14.050Z,0.65
2023-08-29T12:18:41.831Z,0.90
2023-08-29T12:21:13.361Z,0.80
2023-08-29T12:23:42.658Z,0.98
2023-08-29T12:26:10.021Z,1.10
2023-08-29T12:28:37.358Z,0.73
2023-08-29T12:31:08.671Z,0.90
2023-08-29T12:33:36.468Z,0.90
2023-08-29T12:36:04.502Z,0.70
2023-08-29T12:38:34.525Z,0.68
2023-08-29T12:41:01.774Z,0.40
2023-08-29T12:43:31.198Z,1.13
2023-08-29T12:46:00.861Z,0.90
2023-08-29T12:48:33.475Z,0.60
2023-08-29T12:51:00.504Z,0.80
2023-08-29T12:53:28.610Z,0.80
2023-08-29T12:55:55.603Z,0.82
2023-08-29T12:58:22.631Z,0.95
2023-08-29T13:00:49.644Z,1.00
2023-08-29T13:03:16.738Z,1.05
2023-08-29T13:05:44.241Z,0.80
2023-08-29T13:08:11.342Z,1.05
2023-08-29T13:10:38.360Z,0.88
2023-08-29T13:13:05.495Z,0.70
2023-08-29T13:15:45.183Z,1.00
2023-08-29T13:18:17.774Z,0.95
2023-08-29T13:20:44.832Z,0.80
2023-08-29T13:23:12.023Z,0.93
2023-08-29T13:25:39.078Z,0.80
2023-08-29T13:28:07.540Z,0.85
2023-08-29T13:30:34.875Z,0.60
2023-08-29T13:33:02.053Z,1.13
2023-08-29T13:35:29.302Z,1.05
2023-08-29T13:37:56.465Z,0.60
2023-08-29T13:40:23.730Z,0.70
2023-08-29T13:42:50.875Z,1.00
2023-08-29T13:45:17.882Z,0.80
2023-08-29T13:47:46.076Z,0.82
2023-08-29T13:50:13.452Z,1.20
2023-08-29T13:52:40.634Z,0.63
2023-08-29T13:55:08.115Z,0.60
2023-08-29T13:57:35.093Z,1.10
2023-08-29T14:00:02.766Z,0.85
2023-08-29T14:02:32.869Z,1.40
2023-08-29T14:05:03.150Z,0.80
2023-08-29T14:07:30.249Z,1.13
2023-08-29T14:09:57.982Z,0.85
2023-08-29T14:12:27.542Z,0.93
2023-08-29T14:14:55.274Z,0.93
2023-08-29T14:17:24.498Z,1.02
2023-08-29T14:19:51.572Z,0.85
2023-08-29T14:22:21.633Z,0.80
2023-08-29T14:24:51.435Z,0.80
2023-08-29T14:27:24.707Z,1.08
2023-08-29T14:29:51.887Z,0.80
2023-08-29T14:32:19.917Z,1.00
2023-08-29T14:34:47.122Z,0.95
2023-08-29T14:37:14.137Z,0.85
2023-08-29T14:39:43.801Z,1.05
2023-08-29T14:42:10.840Z,0.90
2023-08-29T14:44:40.670Z,0.70
2023-08-29T14:47:12.910Z,0.88
2023-08-29T14:49:44.241Z,0.85
2023-08-29T14:52:11.402Z,1.10
2023-08-29T14:54:57.152Z,0.90
2023-08-29T14:57:27.330Z,0.55
2023-08-29T14:59:56.844Z,0.93
2023-08-29T15:02:24.187Z,0.73
2023-08-29T15:04:51.384Z,1.15
2023-08-29T15:07:18.522Z,0.80
2023-08-29T15:09:45.975Z,0.90
2023-08-29T15:12:18.825Z,1.00
2023-08-29T15:14:48.893Z,1.20
2023-08-29T15:17:22.873Z,0.98
2023-08-29T15:19:52.830Z,1.10
2023-08-29T15:22:20.009Z,1.02
2023-08-29T15:24:50.186Z,0.63
2023-08-29T15:27:17.407Z,0.98
2023-08-29T15:30:04.828Z,1.45
2023-08-29T15:32:34.544Z,0.75
2023-08-29T15:35:06.595Z,0.90
2023-08-29T15:37:34.167Z,1.25
2023-08-29T15:40:04.992Z,0.93
2023-08-29T15:42:32.861Z,0.80
2023-08-29T15:45:00.086Z,1.10
2023-08-29T15:47:27.335Z,1.05
2023-08-29T15:49:57.604Z,1.38
2023-08-29T15:52:32.310Z,1.05
2023-08-29T15:54:59.782Z,0.90
2023-08-29T15:57:26.878Z,1.00
2023-08-29T15:59:54.003Z,1.17
2023-08-29T16:02:21.160Z,1.10
2023-08-29T16:04:48.205Z,1.20
2023-08-29T16:07:15.408Z,0.90
2023-08-29T16:09:42.354Z,0.90
2023-08-29T16:12:09.505Z,0.80
2023-08-29T16:14:36.577Z,0.75
2023-08-29T16:17:03.820Z,0.95
2023-08-29T16:19:30.805Z,0.90
2023-08-29T16:21:57.821Z,0.75
2023-08-29T16:24:24.846Z,1.10
2023-08-29T16:26:51.805Z,1.10
2023-08-29T16:29:18.834Z,0.82
2023-08-29T16:31:46.267Z,1.00
2023-08-29T16:34:13.359Z,1.05
2023-08-29T16:36:40.469Z,0.90
2023-08-29T16:39:10.305Z,1.23
2023-08-29T16:42:05.306Z,1.15
2023-08-29T16:44:28.557Z,1.05
2023-08-29T16:46:55.694Z,1.15
2023-08-29T16:49:22.821Z,0.98
2023-08-29T16:51:49.971Z,0.85
2023-08-29T16:54:19.652Z,1.45
2023-08-29T16:56:48.520Z,0.88
2023-08-29T16:59:15.694Z,1.08
2023-08-29T17:01:43.608Z,0.90
2023-08-29T17:04:11.603Z,1.55
2023-08-29T17:06:38.877Z,1.33
2023-08-29T17:09:11.536Z,0.80
2023-08-29T17:11:38.617Z,1.17
2023-08-29T17:14:08.017Z,1.17
2023-08-29T17:16:35.338Z,1.17
2023-08-29T17:19:05.493Z,1.20
2023-08-29T17:21:35.693Z,1.05
2023-08-29T17:24:02.655Z,0.88
2023-08-29T17:26:29.659Z,1.17
2023-08-29T17:29:05.270Z,1.45
2023-08-29T17:31:39.834Z,0.90
2023-08-29T17:34:10.004Z,0.75
2023-08-29T17:36:47.909Z,1.38
2023-08-29T17:39:18.239Z,0.93
2023-08-29T17:41:47.272Z,1.27
2023-08-29T17:44:14.508Z,1.40
2023-08-29T17:46:41.590Z,1.02
2023-08-29T17:49:08.641Z,1.10
2023-08-29T17:51:36.679Z,1.40
2023-08-29T17:54:03.785Z,1.10
2023-08-29T17:56:32.912Z,0.90
2023-08-29T17:59:00.349Z,0.77
2023-08-29T18:01:27.406Z,1.27
2023-08-29T18:03:56.698Z,1.42
2023-08-29T18:07:22.244Z,1.45
2023-08-29T18:10:14.464Z,1.10
2023-08-29T18:12:41.708Z,1.17
2023-08-29T18:15:11.610Z,1.60
2023-08-29T18:21:02.616Z,1.52
2023-08-29T18:23:30.134Z,1.02
2023-08-29T18:25:58.649Z,0.88
2023-08-29T18:28:29.301Z,0.73
2023-08-29T18:31:00.905Z,0.77
2023-08-29T18:33:30.587Z,0.90
2023-08-29T18:36:23.965Z,0.63
2023-08-29T18:38:56.199Z,0.80
2023-08-29T18:41:23.156Z,0.50
2023-08-29T18:43:50.219Z,0.55
2023-08-29T18:46:18.288Z,0.82
2023-08-29T18:48:45.719Z,0.95
2023-08-29T18:51:12.790Z,0.80
2023-08-29T18:53:39.778Z,0.70
2023-08-29T18:56:06.840Z,0.70
2023-08-29T18:58:37.192Z,1.40
2023-08-29T19:01:04.682Z,0.60
2023-08-29T19:03:32.166Z,0.70
2023-08-29T19:05:59.585Z,0.60
2023-08-29T19:08:26.773Z,0.85
2023-08-29T19:10:53.845Z,1.10
2023-08-29T19:13:23.550Z,0.68
2023-08-29T19:15:52.972Z,0.70
2023-08-29T19:18:23.286Z,0.55
2023-08-29T19:20:50.585Z,0.88
2023-08-29T19:23:18.089Z,0.60
2023-08-29T19:25:45.159Z,0.80
2023-08-29T19:28:12.294Z,0.70
2023-08-29T19:30:39.350Z,0.65
2023-08-29T19:33:06.494Z,0.57
2023-08-29T19:35:36.573Z,0.82
2023-08-29T19:38:04.200Z,0.63
2023-08-29T19:40:31.303Z,0.60
2023-08-29T19:43:03.063Z,0.73
2023-08-29T19:45:35.448Z,0.43
2023-08-29T19:48:04.162Z,0.68
2023-08-29T19:50:38.763Z,0.55
2023-08-29T19:53:06.129Z,0.75
2023-08-29T19:55:33.266Z,0.70
2023-08-29T19:58:00.357Z,0.80
2023-08-29T20:00:27.392Z,0.68
2023-08-29T20:02:54.435Z,0.43
2023-08-29T20:05:21.460Z,0.45
2023-08-29T20:07:48.827Z,0.50
2023-08-29T20:10:15.858Z,0.65
2023-08-29T20:12:43.436Z,0.63
2023-08-29T20:15:11.142Z,1.02
2023-08-29T20:17:38.227Z,0.60
2023-08-29T20:20:06.738Z,0.80
2023-08-29T20:22:33.679Z,0.50
2023-08-29T20:25:00.831Z,0.65
2023-08-29T20:27:27.720Z,0.68
2023-08-29T20:29:54.717Z,0.60
2023-08-29T20:32:22.817Z,0.60
2023-08-29T20:35:00.210Z,0.50
2023-08-29T20:37:30.397Z,0.50
2023-08-29T20:39:57.441Z,0.70
2023-08-29T20:42:24.335Z,0.80
2023-08-29T20:44:54.115Z,0.80
2023-08-29T20:47:21.225Z,0.70
2023-08-29T20:49:48.192Z,0.57
2023-08-29T20:52:15.136Z,0.70
2023-08-29T20:54:44.152Z,0.70
2023-08-29T20:57:11.224Z,1.25
2023-08-29T20:59:38.220Z,0.73
2023-08-29T21:02:05.408Z,0.80
2023-08-29T21:04:33.125Z,0.73
2023-08-29T21:07:00.562Z,0.95
2023-08-29T21:09:27.476Z,0.52
2023-08-29T21:11:55.738Z,0.50
2023-08-29T21:14:25.349Z,0.45
2023-08-29T21:16:52.348Z,0.70
2023-08-29T21:19:19.271Z,0.47
2023-08-29T21:21:46.299Z,0.70
2023-08-29T21:24:13.146Z,0.77
2023-08-29T21:26:40.078Z,0.60
2023-08-29T21:29:08.507Z,0.60
2023-08-29T21:31:35.419Z,0.70
2023-08-29T21:34:02.441Z,0.45
2023-08-29T21:36:29.496Z,0.50
2023-08-29T21:38:57.175Z,0.50
2023-08-29T21:41:25.647Z,0.55
2023-08-29T21:43:52.899Z,0.50
2023-08-29T21:46:19.852Z,0.50
2023-08-29T21:48:46.798Z,0.40
2023-08-29T21:51:13.897Z,0.40
2023-08-29T21:53:40.801Z,0.40
2023-08-29T21:56:10.825Z,0.47
2023-08-29T21:58:37.688Z,0.30
2023-08-29T22:01:04.602Z,0.30
2023-08-29T22:03:31.613Z,0.45
2023-08-29T22:05:58.566Z,0.32
2023-08-29T22:08:25.901Z,0.30
2023-08-29T22:10:52.877Z,0.60
2023-08-29T22:13:19.855Z,0.30
2023-08-29T22:15:46.872Z,0.43
2023-08-29T22:18:14.228Z,0.43
2023-08-29T22:20:41.351Z,0.50
2023-08-29T22:23:08.368Z,0.68
2023-08-29T22:25:35.963Z,0.57
2023-08-29T22:28:02.977Z,0.55
2023-08-29T22:30:29.837Z,0.50
2023-08-29T22:32:56.986Z,0.60
2023-08-29T22:35:23.917Z,0.60
2023-08-29T22:37:50.911Z,0.50
2023-08-29T22:40:17.890Z,0.52
2023-08-29T22:42:45.734Z,0.60
2023-08-29T22:45:14.633Z,0.57
2023-08-29T22:47:42.267Z,0.85
2023-08-29T22:50:09.533Z,0.93
2023-08-29T22:52:39.673Z,0.77
2023-08-29T22:55:07.110Z,0.70
2023-08-29T22:57:33.993Z,1.17
2023-08-29T23:00:00.982Z,1.10
2023-08-29T23:02:27.987Z,0.88
2023-08-29T23:04:54.889Z,0.90
2023-08-29T23:07:23.283Z,0.95
2023-08-29T23:09:50.234Z,0.90
2023-08-29T23:12:17.160Z,1.10
2023-08-29T23:14:44.311Z,0.75
2023-08-29T23:17:11.975Z,1.08
2023-08-29T23:19:38.965Z,1.00
2023-08-29T23:22:05.896Z,0.95
2023-08-29T23:24:33.001Z,1.60
2023-08-29T23:26:59.994Z,1.27
2023-08-29T23:29:26.945Z,1.05
2023-08-29T23:31:53.902Z,1.75
2023-08-29T23:34:20.851Z,1.38
2023-08-29T23:36:47.878Z,1.50
2023-08-29T23:39:14.802Z,1.38
2023-08-29T23:41:41.916Z,1.65
2023-08-29T23:44:08.808Z,1.67
2023-08-29T23:46:35.721Z,1.63
2023-08-29T23:49:02.602Z,0.85
2023-08-29T23:51:29.563Z,0.50
2023-08-29T23:53:56.540Z,0.82
2023-08-29T23:56:23.413Z,0.52
2023-08-29T23:58:50.278Z,0.75
